Glen Arbor, MI

5:02 AM EDT on August 01, 2015 (GMT -0400)
APRSWXNET | | Change Station
CLOSE
Current Station
Personal Weather Station
Location: Glen Arbor, MI
Elevation: 590 ft
Nearby Weather Stations

Elev 590 ft 44.89 °N, 86.01 °W | Updated 31 minutes ago

Partly Cloudy
Partly Cloudy
67 °F
Feels Like 67 °F
N
0
Wind Variable Wind from West
Gusts 0.0 mph

Today
High -- | Low -- °F
--% Chance of Precip.
Yesterday
High -- | Low -- °F
Precip. -- in
6:29 AM 9:10 PM
Full, 99% visible
Pressure 29.88 in
Visibility 10.0 miles
Clouds Scattered Clouds 7500 ft
Overcast 11000 ft
Dew Point 61 °F
Humidity 81%
Rainfall in
Snow Depth Not available.
UV 0 out of 12
Pollen 7.30 out of 12
Air Quality Not available.
Flu Activity Not available.
METAR KFKS 010835Z AUTO 29006KT 10SM SCT075 OVC110 19/16 A2988 RMK AO2 T01940159

More Conditions Fewer Conditions

Pressure 29.88 in
Visibility 10.0 miles
Clouds Scattered Clouds 7500 ft
Overcast 11000 ft
Dew Point 61 °F
Humidity 81%
Rainfall in
Snow Depth Not available.
UV 0 out of 12
Pollen 7.30 out of 12
Air Quality Not available.
Flu Activity Not available.
METAR KFKS 010835Z AUTO 29006KT 10SM SCT075 OVC110 19/16 A2988 RMK AO2 T01940159

More Conditions Fewer Conditions

Nowcast | as of 5:00 am EDT on August 1, 2015

At 6 am...mostly clear. Temperature 63. West winds 9 mph. At 8 am...mostly clear. Scattered showers. Temperature 66. Northwest winds 12 mph. At 10 am...mostly clear. Scattered showers. Temperature 71. West winds 11 mph. At 12 PM...mostly clear. Temperature 75. West winds 12 mph.

×

10-Day Weather Forecast

×

Almanac

Astronomy

Aug. 01, 2015 Rise Set
Actual Time
Civil Twilight
Nautical Twilight
Astronomical Twilight
Moon
Length of Visible Light
Length of Day
Tomorrow will be .
, % of the Moon is Illuminated

Today's Extremes

State Highs State Lows

Community

WunderPhotos

Upload Photos

1,842,905 photos uploaded!

WunderBlogs® & News

Nearby

Air Quality

  Air Quality AQ Index Pollutant
Not available.

Snow Depth

Station Depth Elevation

Earthquake Activity

City Distance Mag. Time & Date
Minimum magnitude displayed is 2.5.

Coastal Water Temperatures

Place Temperature

Stations

Nearby Weather Stations

Station Location Temp. Windchill Dew Point Humidity Wind Precip. Elev Updated Type